sensor_id;sensor_type;location;lat;lon;timestamp;P1;durP1;ratioP1;P2;durP2;ratioP2
9597;SDS011;4837;50.890;4.724;2022-10-15T18:06:14;3.45;;;2.10;;
9597;SDS011;4837;50.890;4.724;2022-10-15T18:08:40;4.07;;;2.05;;
9597;SDS011;4837;50.890;4.724;2022-10-15T18:11:08;3.35;;;1.92;;
9597;SDS011;4837;50.890;4.724;2022-10-15T18:13:34;5.00;;;2.03;;
9597;SDS011;4837;50.890;4.724;2022-10-15T18:16:00;3.78;;;2.00;;
9597;SDS011;4837;50.890;4.724;2022-10-15T18:18:27;4.57;;;1.92;;
9597;SDS011;4837;50.890;4.724;2022-10-15T18:20:53;4.57;;;2.30;;
9597;SDS011;4837;50.890;4.724;2022-10-15T18:23:19;6.43;;;2.30;;
9597;SDS011;4837;50.890;4.724;2022-10-15T18:25:46;3.47;;;2.22;;
9597;SDS011;4837;50.890;4.724;2022-10-15T18:28:12;5.20;;;2.60;;
9597;SDS011;4837;50.890;4.724;2022-10-15T18:30:39;6.38;;;2.58;;
9597;SDS011;4837;50.890;4.724;2022-10-15T18:33:07;5.57;;;2.35;;
9597;SDS011;4837;50.890;4.724;2022-10-15T18:35:34;4.93;;;2.50;;
9597;SDS011;4837;50.890;4.724;2022-10-15T18:38:00;5.85;;;2.78;;
9597;SDS011;4837;50.890;4.724;2022-10-15T18:40:27;6.30;;;3.00;;
9597;SDS011;4837;50.890;4.724;2022-10-15T18:42:53;6.82;;;2.80;;
9597;SDS011;4837;50.890;4.724;2022-10-15T18:45:19;6.18;;;3.28;;
9597;SDS011;4837;50.890;4.724;2022-10-15T18:47:45;4.03;;;2.63;;
9597;SDS011;4837;50.890;4.724;2022-10-15T18:50:11;4.97;;;2.38;;
9597;SDS011;4837;50.890;4.724;2022-10-15T18:52:37;3.13;;;2.42;;
9597;SDS011;4837;50.890;4.724;2022-10-15T18:55:04;4.80;;;2.35;;
9597;SDS011;4837;50.890;4.724;2022-10-15T18:57:30;4.40;;;2.30;;
9597;SDS011;4837;50.890;4.724;2022-10-15T18:59:58;4.93;;;2.63;;
9597;SDS011;4837;50.890;4.724;2022-10-15T19:02:24;5.80;;;3.03;;
9597;SDS011;4837;50.890;4.724;2022-10-15T19:04:51;6.35;;;2.80;;
9597;SDS011;4837;50.890;4.724;2022-10-15T19:07:17;3.97;;;2.50;;
9597;SDS011;4837;50.890;4.724;2022-10-15T19:09:43;6.03;;;2.90;;
9597;SDS011;4837;50.890;4.724;2022-10-15T19:12:09;6.63;;;3.10;;
9597;SDS011;4837;50.890;4.724;2022-10-15T19:14:35;6.40;;;3.00;;
9597;SDS011;4837;50.890;4.724;2022-10-15T19:17:01;3.58;;;2.67;;
9597;SDS011;4837;50.890;4.724;2022-10-15T19:19:28;6.57;;;3.10;;
9597;SDS011;4837;50.890;4.724;2022-10-15T19:21:54;3.67;;;2.70;;
9597;SDS011;4837;50.890;4.724;2022-10-15T19:24:21;4.75;;;3.28;;
9597;SDS011;4837;50.890;4.724;2022-10-15T19:26:48;7.82;;;3.00;;
9597;SDS011;4837;50.890;4.724;2022-10-15T19:29:14;4.43;;;2.85;;
9597;SDS011;4837;50.890;4.724;2022-10-15T19:31:41;4.43;;;3.30;;
9597;SDS011;4837;50.890;4.724;2022-10-15T19:34:08;6.72;;;3.50;;
9597;SDS011;4837;50.890;4.724;2022-10-15T19:36:35;5.18;;;2.97;;
9597;SDS011;4837;50.890;4.724;2022-10-15T19:39:04;5.45;;;3.33;;
9597;SDS011;4837;50.890;4.724;2022-10-15T19:41:30;4.85;;;3.20;;
9597;SDS011;4837;50.890;4.724;2022-10-15T19:43:56;5.15;;;3.80;;
9597;SDS011;4837;50.890;4.724;2022-10-15T19:46:23;8.10;;;3.47;;
9597;SDS011;4837;50.890;4.724;2022-10-15T19:48:50;4.30;;;3.17;;
9597;SDS011;4837;50.890;4.724;2022-10-15T19:51:17;5.13;;;3.70;;
9597;SDS011;4837;50.890;4.724;2022-10-15T19:53:43;5.57;;;3.22;;
9597;SDS011;4837;50.890;4.724;2022-10-15T19:56:09;7.82;;;4.15;;
9597;SDS011;4837;50.890;4.724;2022-10-15T19:58:36;6.63;;;3.65;;
9597;SDS011;4837;50.890;4.724;2022-10-15T20:01:02;6.28;;;3.40;;
9597;SDS011;4837;50.890;4.724;2022-10-15T20:03:29;5.75;;;3.15;;
9597;SDS011;4837;50.890;4.724;2022-10-15T20:05:56;5.85;;;3.58;;
9597;SDS011;4837;50.890;4.724;2022-10-15T20:08:22;7.88;;;3.65;;
9597;SDS011;4837;50.890;4.724;2022-10-15T20:10:49;6.28;;;3.97;;
9597;SDS011;4837;50.890;4.724;2022-10-15T20:13:16;4.85;;;3.60;;
9597;SDS011;4837;50.890;4.724;2022-10-15T20:15:43;5.68;;;3.20;;
9597;SDS011;4837;50.890;4.724;2022-10-15T20:18:10;7.82;;;3.30;;
9597;SDS011;4837;50.890;4.724;2022-10-15T20:20:37;7.45;;;3.80;;
9597;SDS011;4837;50.890;4.724;2022-10-15T20:23:03;5.30;;;3.58;;
9597;SDS011;4837;50.890;4.724;2022-10-15T20:25:29;7.15;;;3.58;;
9597;SDS011;4837;50.890;4.724;2022-10-15T20:27:56;4.95;;;3.35;;
9597;SDS011;4837;50.890;4.724;2022-10-15T20:30:22;6.22;;;3.25;;
9597;SDS011;4837;50.890;4.724;2022-10-15T20:32:48;4.50;;;2.83;;
9597;SDS011;4837;50.890;4.724;2022-10-15T20:35:15;4.03;;;3.13;;
9597;SDS011;4837;50.890;4.724;2022-10-15T20:37:41;5.38;;;3.33;;
9597;SDS011;4837;50.890;4.724;2022-10-15T20:40:08;4.07;;;3.40;;
9597;SDS011;4837;50.890;4.724;2022-10-15T20:42:34;5.30;;;3.13;;
9597;SDS011;4837;50.890;4.724;2022-10-15T20:45:03;6.03;;;3.13;;
9597;SDS011;4837;50.890;4.724;2022-10-15T20:47:30;6.72;;;3.30;;
9597;SDS011;4837;50.890;4.724;2022-10-15T20:49:57;4.93;;;3.25;;
9597;SDS011;4837;50.890;4.724;2022-10-15T20:52:23;5.73;;;3.80;;
9597;SDS011;4837;50.890;4.724;2022-10-15T20:54:50;5.28;;;3.92;;
9597;SDS011;4837;50.890;4.724;2022-10-15T20:57:16;5.38;;;3.22;;
9597;SDS011;4837;50.890;4.724;2022-10-15T20:59:42;4.82;;;3.40;;
9597;SDS011;4837;50.890;4.724;2022-10-15T21:02:08;5.25;;;3.38;;
9597;SDS011;4837;50.890;4.724;2022-10-15T21:04:34;4.88;;;3.13;;
9597;SDS011;4837;50.890;4.724;2022-10-15T21:07:01;5.80;;;3.45;;
9597;SDS011;4837;50.890;4.724;2022-10-15T21:09:27;4.57;;;3.47;;
9597;SDS011;4837;50.890;4.724;2022-10-15T21:11:53;7.85;;;3.50;;
9597;SDS011;4837;50.890;4.724;2022-10-15T21:14:19;5.93;;;2.75;;
9597;SDS011;4837;50.890;4.724;2022-10-15T21:16:45;5.00;;;3.28;;
9597;SDS011;4837;50.890;4.724;2022-10-15T21:19:11;5.80;;;2.88;;
9597;SDS011;4837;50.890;4.724;2022-10-15T21:21:37;3.10;;;2.67;;
9597;SDS011;4837;50.890;4.724;2022-10-15T21:24:04;4.88;;;2.70;;
9597;SDS011;4837;50.890;4.724;2022-10-15T21:26:30;3.38;;;2.78;;
9597;SDS011;4837;50.890;4.724;2022-10-15T21:28:57;5.75;;;2.88;;
9597;SDS011;4837;50.890;4.724;2022-10-15T21:31:23;4.73;;;2.63;;
9597;SDS011;4837;50.890;4.724;2022-10-15T21:33:50;4.13;;;2.67;;
9597;SDS011;4837;50.890;4.724;2022-10-15T21:38:46;3.88;;;2.80;;
9597;SDS011;4837;50.890;4.724;2022-10-15T21:41:12;5.55;;;3.10;;
9597;SDS011;4837;50.890;4.724;2022-10-15T21:43:38;5.80;;;2.90;;
9597;SDS011;4837;50.890;4.724;2022-10-15T21:46:08;4.72;;;2.45;;
9597;SDS011;4837;50.890;4.724;2022-10-15T21:48:35;5.07;;;3.10;;
9597;SDS011;4837;50.890;4.724;2022-10-15T21:51:02;4.28;;;3.17;;
9597;SDS011;4837;50.890;4.724;2022-10-15T21:53:28;4.18;;;2.80;;
9597;SDS011;4837;50.890;4.724;2022-10-15T21:55:54;4.65;;;2.90;;
9597;SDS011;4837;50.890;4.724;2022-10-15T21:58:21;6.05;;;2.67;;
9597;SDS011;4837;50.890;4.724;2022-10-15T22:00:47;3.53;;;3.00;;
9597;SDS011;4837;50.890;4.724;2022-10-15T22:03:13;5.50;;;3.17;;
9597;SDS011;4837;50.890;4.724;2022-10-15T22:05:39;4.28;;;3.25;;
9597;SDS011;4837;50.890;4.724;2022-10-15T22:08:06;3.90;;;3.15;;
9597;SDS011;4837;50.890;4.724;2022-10-15T22:10:35;5.25;;;3.13;;
9597;SDS011;4837;50.890;4.724;2022-10-15T22:13:01;5.05;;;3.10;;
9597;SDS011;4837;50.890;4.724;2022-10-15T22:15:28;4.05;;;2.80;;
9597;SDS011;4837;50.890;4.724;2022-10-15T22:17:54;6.13;;;2.85;;
9597;SDS011;4837;50.890;4.724;2022-10-15T22:20:20;4.22;;;2.88;;
9597;SDS011;4837;50.890;4.724;2022-10-15T22:22:47;4.88;;;3.15;;
9597;SDS011;4837;50.890;4.724;2022-10-15T22:25:13;5.22;;;3.10;;
9597;SDS011;4837;50.890;4.724;2022-10-15T22:27:39;5.22;;;2.67;;
9597;SDS011;4837;50.890;4.724;2022-10-15T22:30:05;5.47;;;3.03;;
9597;SDS011;4837;50.890;4.724;2022-10-15T22:32:31;3.50;;;2.47;;
9597;SDS011;4837;50.890;4.724;2022-10-15T22:34:57;3.58;;;2.50;;
9597;SDS011;4837;50.890;4.724;2022-10-15T22:37:23;4.43;;;2.45;;
9597;SDS011;4837;50.890;4.724;2022-10-15T22:39:49;5.65;;;2.50;;
9597;SDS011;4837;50.890;4.724;2022-10-15T22:42:16;4.47;;;2.67;;
9597;SDS011;4837;50.890;4.724;2022-10-15T22:44:42;2.60;;;2.22;;
9597;SDS011;4837;50.890;4.724;2022-10-15T22:47:08;4.22;;;2.47;;
9597;SDS011;4837;50.890;4.724;2022-10-15T22:49:34;3.80;;;2.47;;
9597;SDS011;4837;50.890;4.724;2022-10-15T22:52:00;5.32;;;2.90;;
9597;SDS011;4837;50.890;4.724;2022-10-15T22:54:26;4.55;;;3.22;;
9597;SDS011;4837;50.890;4.724;2022-10-15T22:56:53;3.30;;;2.17;;
9597;SDS011;4837;50.890;4.724;2022-10-15T22:59:19;2.55;;;1.90;;
9597;SDS011;4837;50.890;4.724;2022-10-15T23:01:45;3.40;;;2.10;;
9597;SDS011;4837;50.890;4.724;2022-10-15T23:04:12;3.60;;;2.20;;
9597;SDS011;4837;50.890;4.724;2022-10-15T23:06:39;3.10;;;2.20;;
9597;SDS011;4837;50.890;4.724;2022-10-15T23:09:05;2.67;;;1.90;;
9597;SDS011;4837;50.890;4.724;2022-10-15T23:11:36;5.30;;;2.15;;
9597;SDS011;4837;50.890;4.724;2022-10-15T23:14:04;2.70;;;1.73;;
9597;SDS011;4837;50.890;4.724;2022-10-15T23:16:31;4.13;;;1.52;;
9597;SDS011;4837;50.890;4.724;2022-10-15T23:18:59;2.30;;;1.50;;
9597;SDS011;4837;50.890;4.724;2022-10-15T23:21:27;2.45;;;1.50;;
9597;SDS011;4837;50.890;4.724;2022-10-15T23:23:53;2.38;;;1.50;;
9597;SDS011;4837;50.890;4.724;2022-10-15T23:26:20;2.65;;;1.67;;
9597;SDS011;4837;50.890;4.724;2022-10-15T23:28:50;2.85;;;1.50;;
9597;SDS011;4837;50.890;4.724;2022-10-15T23:31:16;1.95;;;1.60;;
9597;SDS011;4837;50.890;4.724;2022-10-15T23:33:43;1.83;;;1.40;;
9597;SDS011;4837;50.890;4.724;2022-10-15T23:36:09;4.68;;;1.73;;
9597;SDS011;4837;50.890;4.724;2022-10-15T23:38:36;3.97;;;1.90;;
9597;SDS011;4837;50.890;4.724;2022-10-15T23:41:03;3.60;;;1.53;;
9597;SDS011;4837;50.890;4.724;2022-10-15T23:43:29;2.05;;;1.50;;
9597;SDS011;4837;50.890;4.724;2022-10-15T23:45:56;2.88;;;1.60;;
9597;SDS011;4837;50.890;4.724;2022-10-15T23:48:22;3.78;;;1.70;;
9597;SDS011;4837;50.890;4.724;2022-10-15T23:50:48;2.75;;;1.60;;
9597;SDS011;4837;50.890;4.724;2022-10-15T23:53:15;2.35;;;1.63;;
9597;SDS011;4837;50.890;4.724;2022-10-15T23:55:41;2.60;;;1.50;;
9597;SDS011;4837;50.890;4.724;2022-10-15T23:58:07;2.28;;;1.42;;
